Time;durP1;ratioP1;P1;durP2;ratioP2;P2;SDS_P1;SDS_P2;PMS_P1;PMS_P2;Temp;Humidity;BMP_temperature;BMP_pressure;BME280_temperature;BME280_humidity;BME280_pressure;Samples;Min_cycle;Max_cycle;Signal;HPM_P1;HPM_P2
2022/05/09 00:02:13;;;;;;;0.82;0.60;;;;;;;20.93;44.83;102817.28;5084239;28;20031;-45
2022/05/09 00:04:38;;;;;;;0.90;0.70;;;;;;;20.92;44.90;102812.88;5084531;28;20028;-46
2022/05/09 00:07:04;;;;;;;0.90;0.70;;;;;;;20.90;44.79;102806.75;5084931;28;20028;-45
2022/05/09 00:09:30;;;;;;;0.65;0.60;;;;;;;20.92;45.07;102806.59;5084466;28;20062;-44
2022/05/09 00:11:55;;;;;;;1.15;0.50;;;;;;;20.88;44.78;102808.72;5065745;28;20084;-48
2022/05/09 00:14:21;;;;;;;1.08;0.60;;;;;;;20.89;44.83;102810.44;5064113;28;20033;-44
2022/05/09 00:16:46;;;;;;;1.15;0.70;;;;;;;20.86;44.73;102799.91;5063465;28;20036;-44
2022/05/09 00:19:13;;;;;;;1.33;0.93;;;;;;;20.89;44.83;102807.72;5064458;28;20127;-48
2022/05/09 00:21:40;;;;;;;1.23;0.70;;;;;;;20.88;44.46;102807.88;5064578;28;20100;-45
2022/05/09 00:24:08;;;;;;;0.70;0.70;;;;;;;20.87;44.76;102803.47;5095092;28;20116;-45
2022/05/09 00:26:34;;;;;;;0.63;0.45;;;;;;;20.87;44.71;102811.56;5084459;28;20051;-49
2022/05/09 00:29:00;;;;;;;1.15;0.70;;;;;;;20.84;44.69;102801.88;5083849;28;20544;-46
2022/05/09 00:31:26;;;;;;;1.00;0.60;;;;;;;20.86;44.80;102804.47;5083191;28;20024;-47
2022/05/09 00:33:51;;;;;;;1.67;0.68;;;;;;;20.85;44.57;102803.56;5084270;28;20025;-45
2022/05/09 00:36:17;;;;;;;1.30;0.60;;;;;;;20.85;44.71;102803.56;5085382;28;20024;-45
2022/05/09 00:38:43;;;;;;;1.67;0.63;;;;;;;20.84;44.63;102801.88;5104563;28;20103;-44
2022/05/09 00:43:53;;;;;;;1.20;0.70;;;;;;;20.83;44.50;102799.31;5097917;28;20078;-49
2022/05/09 00:46:18;;;;;;;1.35;0.63;;;;;;;20.81;44.51;102796.72;5082767;28;20052;-49
2022/05/09 00:48:43;;;;;;;1.05;0.65;;;;;;;20.81;44.44;102794.03;5084005;28;20037;-47
2022/05/09 00:51:10;;;;;;;2.22;0.80;;;;;;;20.81;44.34;102794.03;5083956;28;20562;-44
2022/05/09 00:53:36;;;;;;;0.60;0.50;;;;;;;20.78;44.52;102788.91;5083349;28;20500;-44
2022/05/09 00:56:05;;;;;;;2.10;0.80;;;;;;;20.81;44.10;102790.47;5082703;28;20028;-45
2022/05/09 00:59:02;;;;;;;1.67;0.70;;;;;;;20.79;44.08;102793.31;5099370;28;20025;-47
2022/05/09 01:01:28;;;;;;;1.23;0.70;;;;;;;20.78;44.08;102790.75;5079903;28;20032;-46
2022/05/09 01:04:05;;;;;;;0.98;0.60;;;;;;;20.78;44.23;102788.06;5083752;28;20032;-46
2022/05/09 01:06:30;;;;;;;0.95;0.63;;;;;;;20.75;44.46;102783.75;5082695;28;20058;-47
2022/05/09 01:08:55;;;;;;;1.75;0.65;;;;;;;20.76;44.34;102784.63;5083544;28;20084;-45
2022/05/09 01:11:23;;;;;;;2.08;0.85;;;;;;;20.75;44.08;102781.06;5070391;28;20063;-51
2022/05/09 01:13:54;;;;;;;1.30;0.73;;;;;;;20.74;43.94;102784.75;5061979;28;20091;-46
2022/05/09 01:16:20;;;;;;;0.57;0.50;;;;;;;20.70;43.99;102777.91;5061417;28;20163;-49
2022/05/09 01:18:46;;;;;;;0.98;0.70;;;;;;;20.72;44.27;102779.47;5063643;28;20052;-48
2022/05/09 01:21:28;;;;;;;1.10;0.60;;;;;;;20.74;43.85;102773.94;5063618;28;20024;-49
2022/05/09 01:23:53;;;;;;;1.52;0.60;;;;;;;20.71;43.93;102772.38;5079340;28;20028;-49
2022/05/09 01:26:18;;;;;;;1.30;0.70;;;;;;;20.69;43.92;102766.25;5083417;28;20036;-48
2022/05/09 01:28:43;;;;;;;0.65;0.50;;;;;;;20.70;43.77;102772.50;5083381;28;20032;-47
2022/05/09 01:31:09;;;;;;;1.35;0.88;;;;;;;20.70;43.64;102772.50;5081375;28;20082;-46
2022/05/09 01:33:37;;;;;;;1.00;0.68;;;;;;;20.70;43.57;102764.41;5082224;28;20029;-50
2022/05/09 01:36:12;;;;;;;1.38;0.70;;;;;;;20.69;43.87;102763.53;5082105;28;20476;-44
2022/05/09 01:38:46;;;;;;;0.90;0.60;;;;;;;20.69;43.77;102776.22;5063304;28;20152;-46
2022/05/09 01:41:11;;;;;;;1.23;0.80;;;;;;;20.65;43.47;102772.06;5063158;28;20025;-49
2022/05/09 01:43:40;;;;;;;1.10;0.63;;;;;;;20.66;43.62;102768.38;5066447;28;20036;-49
2022/05/09 01:46:12;;;;;;;1.20;0.80;;;;;;;20.59;43.55;102759.94;5082248;28;20037;-50
2022/05/09 01:51:22;;;;;;;2.10;0.75;;;;;;;20.61;43.55;102759.81;5083494;28;20080;-47
2022/05/09 01:53:52;;;;;;;1.20;0.80;;;;;;;20.61;43.47;102755.25;5082881;28;20473;-47
2022/05/09 01:56:23;;;;;;;1.10;0.70;;;;;;;20.62;43.61;102759.66;5083423;28;20029;-48
2022/05/09 01:58:49;;;;;;;1.15;0.80;;;;;;;20.61;43.33;102757.97;5081909;28;20154;-47
2022/05/09 02:01:16;;;;;;;1.27;0.85;;;;;;;20.61;43.12;102754.41;5081653;28;20054;-49
2022/05/09 02:03:42;;;;;;;1.35;0.52;;;;;;;20.59;43.37;102759.94;5081966;28;20025;-49
2022/05/09 02:06:09;;;;;;;1.23;0.60;;;;;;;20.60;43.43;102766.19;5083145;28;20034;-46
2022/05/09 02:08:36;;;;;;;1.70;0.90;;;;;;;20.59;43.51;102759.06;5065566;28;20115;-45
2022/05/09 02:11:02;;;;;;;0.82;0.70;;;;;;;20.58;43.47;102763.63;5073577;28;20036;-48
2022/05/09 02:13:27;;;;;;;1.38;0.70;;;;;;;20.58;43.08;102768.19;5083059;28;20029;-47
2022/05/09 02:15:52;;;;;;;1.08;0.70;;;;;;;20.57;43.27;102770.03;5082113;28;20672;-48
2022/05/09 02:18:17;;;;;;;1.10;0.80;;;;;;;20.55;43.19;102768.44;5082152;28;20471;-48
2022/05/09 02:20:43;;;;;;;0.90;0.60;;;;;;;20.56;43.21;102770.13;5083080;28;20028;-48
2022/05/09 02:23:08;;;;;;;1.30;0.70;;;;;;;20.56;42.83;102764.75;5081621;28;20032;-47
2022/05/09 02:25:35;;;;;;;1.10;0.63;;;;;;;20.54;42.89;102764.88;5083033;28;20541;-45
2022/05/09 02:28:02;;;;;;;1.33;0.60;;;;;;;20.55;42.95;102776.53;5082882;28;20024;-44
2022/05/09 02:30:29;;;;;;;1.45;1.00;;;;;;;20.53;42.82;102760.47;5082101;28;20033;-46
2022/05/09 02:32:54;;;;;;;0.80;0.60;;;;;;;20.53;43.22;102756.91;5069453;28;20083;-46
2022/05/09 02:35:21;;;;;;;1.23;0.55;;;;;;;20.51;42.71;102754.34;5083423;28;20472;-45
2022/05/09 02:37:48;;;;;;;0.60;0.60;;;;;;;20.52;43.05;102755.19;5100264;28;20024;-46
2022/05/09 02:40:14;;;;;;;1.83;0.70;;;;;;;20.49;43.16;102747.38;5106633;28;20024;-44
2022/05/09 02:42:40;;;;;;;0.90;0.50;;;;;;;20.49;42.89;102745.53;5106435;28;20030;-50
2022/05/09 02:45:06;;;;;;;1.05;0.80;;;;;;;20.49;42.79;102756.34;5089607;28;20115;-43
2022/05/09 02:47:32;;;;;;;0.95;0.60;;;;;;;20.47;43.00;102745.63;5084928;28;20021;-45
2022/05/09 02:49:57;;;;;;;0.65;0.65;;;;;;;20.47;42.94;102752.84;5086177;28;20035;-50
2022/05/09 02:52:22;;;;;;;1.33;0.70;;;;;;;20.46;42.82;102743.03;5079711;28;20029;-48
2022/05/09 02:54:47;;;;;;;1.30;0.77;;;;;;;20.45;42.56;102736.78;5067240;28;20048;-48
2022/05/09 02:57:13;;;;;;;1.05;0.73;;;;;;;20.45;42.67;102738.63;5085279;28;20032;-50
2022/05/09 02:59:39;;;;;;;1.13;0.85;;;;;;;20.44;42.72;102737.78;5085405;28;20021;-45
2022/05/09 03:02:04;;;;;;;1.92;0.60;;;;;;;20.43;42.41;102738.78;5085794;28;20033;-48
2022/05/09 03:04:41;;;;;;;1.35;0.70;;;;;;;20.42;42.68;102736.19;5085904;28;20051;-47
2022/05/09 03:07:12;;;;;;;1.08;0.60;;;;;;;20.39;42.66;102729.25;5086084;28;20024;-45
2022/05/09 03:09:38;;;;;;;1.13;0.80;;;;;;;20.42;42.81;102736.19;5085731;28;20051;-46
2022/05/09 03:12:07;;;;;;;1.88;0.70;;;;;;;20.40;42.82;102730.09;5085740;28;20016;-46
2022/05/09 03:14:32;;;;;;;2.05;0.90;;;;;;;20.37;42.72;102725.81;5085008;28;20033;-45
2022/05/09 03:16:58;;;;;;;1.15;0.60;;;;;;;20.39;42.54;102731.94;5084754;28;20086;-47
2022/05/09 03:19:24;;;;;;;0.65;0.50;;;;;;;20.39;42.79;102731.06;5085791;28;20035;-48
2022/05/09 03:21:50;;;;;;;1.35;0.90;;;;;;;20.38;42.60;102729.34;5085840;28;20042;-46
2022/05/09 03:24:15;;;;;;;0.65;0.65;;;;;;;20.36;42.38;102729.50;5084089;28;20107;-48
2022/05/09 03:26:41;;;;;;;0.95;0.47;;;;;;;20.36;42.29;102717.84;5085802;28;20048;-46
2022/05/09 03:29:06;;;;;;;0.60;0.50;;;;;;;20.35;42.65;102729.66;5083780;28;20120;-49
2022/05/09 03:31:31;;;;;;;1.77;0.60;;;;;;;20.33;42.54;102724.34;5084855;28;20039;-47
2022/05/09 03:33:57;;;;;;;0.60;0.50;;;;;;;20.34;42.67;102725.22;5085379;28;20024;-46
2022/05/09 03:36:22;;;;;;;1.10;0.50;;;;;;;20.31;42.45;102718.25;5085509;28;20059;-47
2022/05/09 03:38:47;;;;;;;0.73;0.60;;;;;;;20.31;42.63;102722.78;5083690;28;20033;-47
2022/05/09 03:41:13;;;;;;;0.70;0.60;;;;;;;20.27;42.39;102716.81;5085400;28;20020;-44
2022/05/09 03:43:38;;;;;;;0.90;0.70;;;;;;;20.29;42.56;102720.22;5081016;28;20039;-47
2022/05/09 03:46:03;;;;;;;0.50;0.50;;;;;;;20.28;42.49;102720.34;5078527;28;20045;-50
2022/05/09 03:48:28;;;;;;;1.23;0.77;;;;;;;20.28;42.25;102723.06;5065187;28;20036;-45
2022/05/09 03:50:56;;;;;;;1.00;0.70;;;;;;;20.28;42.36;102725.75;5065136;28;20029;-47
2022/05/09 03:53:23;;;;;;;0.90;0.70;;;;;;;20.21;42.44;102711.91;5065136;28;20124;-45
2022/05/09 03:55:48;;;;;;;0.65;0.60;;;;;;;20.26;42.52;102723.16;5064832;28;20685;-47
2022/05/09 03:58:14;;;;;;;0.85;0.60;;;;;;;20.25;42.23;102715.22;5064655;28;20040;-51
2022/05/09 04:00:39;;;;;;;1.25;0.70;;;;;;;20.25;42.12;102720.63;5063807;28;20501;-49
2022/05/09 04:03:05;;;;;;;0.73;0.60;;;;;;;20.22;42.40;102719.06;5065189;28;20085;-50
2022/05/09 04:05:31;;;;;;;1.23;0.80;;;;;;;20.22;42.48;102719.91;5064688;28;20092;-50
2022/05/09 04:07:58;;;;;;;0.63;0.50;;;;;;;20.23;42.49;102712.66;5064941;28;20037;-46
2022/05/09 04:10:27;;;;;;;0.60;0.60;;;;;;;20.21;42.31;102715.47;5070179;28;20100;-47
2022/05/09 04:12:52;;;;;;;1.35;0.65;;;;;;;20.20;42.40;102711.06;5064497;28;20029;-46
2022/05/09 04:18:03;;;;;;;1.83;0.73;;;;;;;20.19;42.10;102708.50;5064589;28;20039;-47
2022/05/09 04:20:29;;;;;;;0.73;0.60;;;;;;;20.18;41.90;102707.66;5064411;28;20086;-46
2022/05/09 04:22:59;;;;;;;1.08;0.60;;;;;;;20.18;41.92;102713.06;5064395;28;20029;-47
2022/05/09 04:25:25;;;;;;;1.02;0.60;;;;;;;20.17;42.11;102710.47;5067507;28;20405;-47
2022/05/09 04:27:50;;;;;;;0.98;0.60;;;;;;;20.17;42.26;102711.31;5083779;28;20031;-50
2022/05/09 04:30:16;;;;;;;0.70;0.65;;;;;;;20.19;41.88;102708.50;5082906;28;20083;-49
2022/05/09 04:32:41;;;;;;;1.13;0.85;;;;;;;20.19;42.16;102712.06;5083347;28;20028;-50
2022/05/09 04:35:14;;;;;;;0.63;0.50;;;;;;;20.19;41.97;102701.25;5082885;28;20043;-52
2022/05/09 04:37:42;;;;;;;1.13;0.60;;;;;;;20.15;42.26;102691.72;5083901;28;20031;-49
2022/05/09 04:40:08;;;;;;;0.65;0.65;;;;;;;20.18;41.72;102688.75;5066467;28;20033;-50
2022/05/09 04:42:33;;;;;;;1.20;0.88;;;;;;;20.18;42.10;102691.44;5062735;28;20502;-51
2022/05/09 04:44:58;;;;;;;0.73;0.55;;;;;;;20.18;42.12;102688.75;5077845;28;20055;-51
2022/05/09 04:47:23;;;;;;;0.65;0.50;;;;;;;20.19;41.71;102697.69;5082972;28;20420;-51
2022/05/09 04:49:49;;;;;;;0.82;0.50;;;;;;;20.18;42.03;102696.00;5083438;28;20433;-51
2022/05/09 04:52:14;;;;;;;0.80;0.55;;;;;;;20.18;41.99;102702.25;5083371;28;20754;-50
2022/05/09 04:54:39;;;;;;;0.47;0.47;;;;;;;20.18;41.91;102696.00;5082998;28;20032;-46
2022/05/09 04:57:05;;;;;;;0.73;0.65;;;;;;;20.16;42.08;102693.41;5081757;28;20032;-47
2022/05/09 04:59:30;;;;;;;0.85;0.70;;;;;;;20.18;42.01;102693.28;5082555;28;20032;-47
2022/05/09 05:01:55;;;;;;;0.60;0.50;;;;;;;20.18;41.63;102693.28;5082899;28;20036;-49
2022/05/09 05:04:21;;;;;;;0.60;0.60;;;;;;;20.18;42.13;102698.69;5080138;28;20537;-45
2022/05/09 05:06:46;;;;;;;0.63;0.50;;;;;;;20.17;41.90;102695.13;5072251;28;20032;-47
2022/05/09 05:09:11;;;;;;;0.40;0.40;;;;;;;20.16;42.06;102695.25;5082638;28;20542;-47
2022/05/09 05:11:37;;;;;;;0.75;0.63;;;;;;;20.18;42.13;102691.44;5069622;28;20053;-49
2022/05/09 05:14:02;;;;;;;1.33;0.57;;;;;;;20.17;41.99;102692.41;5071253;28;20029;-44
2022/05/09 05:19:12;;;;;;;1.05;0.68;;;;;;;20.14;41.97;102686.44;5067966;28;20092;-46
2022/05/09 05:21:37;;;;;;;0.95;0.70;;;;;;;20.16;41.91;102689.84;5069282;28;21001;-49
2022/05/09 05:24:02;;;;;;;0.93;0.70;;;;;;;20.17;42.14;102696.97;5070367;28;20035;-47
2022/05/09 05:26:28;;;;;;;1.27;0.60;;;;;;;20.17;42.19;102686.16;5080351;28;20036;-46
2022/05/09 05:28:53;;;;;;;0.70;0.50;;;;;;;20.16;42.19;102689.84;5073063;28;20031;-47
2022/05/09 05:31:19;;;;;;;0.47;0.45;;;;;;;20.15;41.86;102689.00;5060728;28;20060;-45
2022/05/09 05:33:44;;;;;;;1.25;0.73;;;;;;;20.14;41.92;102686.44;5078238;28;20036;-48
2022/05/09 05:36:10;;;;;;;0.77;0.60;;;;;;;20.15;41.79;102680.91;5074755;28;20036;-48
2022/05/09 05:38:35;;;;;;;0.65;0.50;;;;;;;20.15;41.95;102690.84;5076673;28;20033;-46
2022/05/09 05:41:00;;;;;;;0.95;0.63;;;;;;;20.15;42.31;102682.75;5070471;28;20036;-49
2022/05/09 05:43:25;;;;;;;1.52;0.70;;;;;;;20.14;42.13;102681.91;5086352;28;20127;-50
2022/05/09 05:45:57;;;;;;;0.70;0.70;;;;;;;20.15;42.49;102688.16;5074638;28;20361;-48
2022/05/09 05:48:24;;;;;;;1.85;0.80;;;;;;;20.15;42.56;102688.16;5073850;28;20032;-49
2022/05/09 05:50:49;;;;;;;1.23;0.70;;;;;;;20.16;42.76;102681.75;5068620;28;20026;-48
2022/05/09 05:53:14;;;;;;;1.23;0.70;;;;;;;20.16;42.47;102689.84;5077634;28;20029;-50
2022/05/09 05:55:39;;;;;;;1.25;0.73;;;;;;;20.16;42.74;102682.59;5077563;28;20040;-50
2022/05/09 05:58:04;;;;;;;1.38;0.70;;;;;;;20.16;42.77;102685.31;5069899;28;20040;-48
2022/05/09 06:00:30;;;;;;;0.70;0.60;;;;;;;20.17;42.70;102678.91;5076016;28;20096;-52
2022/05/09 06:02:55;;;;;;;1.52;0.70;;;;;;;20.16;43.33;102682.59;5079645;28;20035;-48
2022/05/09 06:05:20;;;;;;;1.02;0.70;;;;;;;20.09;43.10;102667.94;5080580;28;20090;-49
2022/05/09 06:07:53;;;;;;;0.85;0.60;;;;;;;20.17;43.25;102675.34;5073371;28;20028;-50
2022/05/09 06:10:18;;;;;;;1.20;0.60;;;;;;;20.18;43.33;102679.78;5083932;28;20035;-51
2022/05/09 06:12:44;;;;;;;0.93;0.70;;;;;;;20.17;43.39;102678.06;5080370;28;20024;-55
2022/05/09 06:15:25;;;;;;;0.88;0.60;;;;;;;20.17;43.37;102678.91;5074098;28;20527;-52
2022/05/09 06:17:51;;;;;;;1.33;0.77;;;;;;;20.17;43.15;102676.22;5079376;28;20032;-51
2022/05/09 06:20:18;;;;;;;1.27;0.65;;;;;;;20.17;43.49;102673.50;5074871;28;20360;-50
2022/05/09 06:22:43;;;;;;;0.77;0.70;;;;;;;20.15;43.59;102663.84;5075399;28;20496;-52
2022/05/09 06:25:11;;;;;;;1.02;0.63;;;;;;;20.18;43.41;102667.13;5082181;28;20041;-50
2022/05/09 06:27:36;;;;;;;1.25;0.70;;;;;;;20.19;43.40;102670.69;5075355;28;20035;-52
2022/05/09 06:30:03;;;;;;;0.70;0.70;;;;;;;20.20;43.56;102667.00;5078967;28;20024;-46
2022/05/09 06:32:28;;;;;;;1.52;0.93;;;;;;;20.20;43.16;102667.00;5076411;28;20754;-54
2022/05/09 06:34:54;;;;;;;2.15;1.02;;;;;;;20.19;43.21;102665.28;5072221;28;20138;-51
2022/05/09 06:37:19;;;;;;;1.25;0.80;;;;;;;20.19;43.31;102671.53;5081231;28;20100;-53
2022/05/09 06:39:44;;;;;;;1.70;0.90;;;;;;;20.19;43.33;102660.75;5077162;28;20075;-53
2022/05/09 06:42:10;;;;;;;1.75;0.82;;;;;;;20.21;43.45;102666.00;5076187;28;20488;-52
2022/05/09 06:44:35;;;;;;;2.00;0.82;;;;;;;20.20;43.50;102659.75;5077520;28;20044;-51
2022/05/09 06:47:01;;;;;;;2.67;1.05;;;;;;;20.20;43.44;102658.91;5079420;28;20032;-49
2022/05/09 06:49:27;;;;;;;1.48;1.10;;;;;;;20.22;43.56;102656.94;5077039;28;20071;-53
2022/05/09 06:51:52;;;;;;;2.65;1.15;;;;;;;20.23;43.70;102656.78;5076528;28;20497;-50
2022/05/09 06:54:20;;;;;;;2.22;0.80;;;;;;;20.23;43.75;102654.09;5082877;28;20025;-51
2022/05/09 06:56:45;;;;;;;1.23;1.00;;;;;;;20.25;43.67;102653.09;5078488;28;20040;-51
2022/05/09 06:59:11;;;;;;;1.65;1.05;;;;;;;20.25;43.44;102653.94;5077450;28;20103;-46
2022/05/09 07:01:37;;;;;;;2.13;1.20;;;;;;;20.25;43.46;102651.25;5076749;28;20029;-49
2022/05/09 07:04:03;;;;;;;2.03;0.95;;;;;;;20.26;43.53;102647.53;5069888;28;20090;-47
2022/05/09 07:06:28;;;;;;;1.33;0.80;;;;;;;20.26;43.01;102647.53;5083541;28;20032;-52
2022/05/09 07:08:53;;;;;;;2.78;1.30;;;;;;;20.26;43.39;102639.44;5077438;28;20424;-49
2022/05/09 07:11:19;;;;;;;2.15;1.10;;;;;;;20.25;43.16;102643.13;5079533;28;20032;-49
2022/05/09 07:13:44;;;;;;;1.30;1.00;;;;;;;20.26;43.17;102644.84;5068458;28;20032;-47
2022/05/09 07:16:11;;;;;;;2.55;1.00;;;;;;;20.26;43.08;102647.53;5079065;28;20036;-45
2022/05/09 07:18:38;;;;;;;1.40;0.82;;;;;;;20.25;42.78;102648.53;5076535;28;20044;-47
2022/05/09 07:21:05;;;;;;;2.13;1.10;;;;;;;20.27;42.77;102654.66;5094796;28;20680;-52
2022/05/09 07:23:30;;;;;;;1.30;0.90;;;;;;;20.27;42.62;102646.56;5074824;28;20029;-47
2022/05/09 07:25:55;;;;;;;1.60;0.85;;;;;;;20.28;42.36;102650.13;5079229;28;20058;-50
2022/05/09 07:28:21;;;;;;;1.15;0.80;;;;;;;20.29;43.03;102649.97;5079678;28;20032;-52
2022/05/09 07:30:47;;;;;;;1.65;0.93;;;;;;;20.30;42.84;102642.72;5078395;28;20048;-51
2022/05/09 07:33:15;;;;;;;1.15;0.80;;;;;;;20.30;42.56;102634.63;5072220;28;20188;-51
2022/05/09 07:35:42;;;;;;;2.28;1.27;;;;;;;20.30;42.45;102635.47;5077222;28;20123;-50
2022/05/09 07:38:07;;;;;;;2.35;1.13;;;;;;;20.32;42.35;102641.59;5078635;28;20024;-52
2022/05/09 07:40:33;;;;;;;1.40;1.02;;;;;;;20.32;42.55;102638.06;5075069;28;20028;-49
2022/05/09 07:42:58;;;;;;;1.58;0.82;;;;;;;20.33;42.47;102645.16;5071291;28;20501;-50
2022/05/09 07:45:24;;;;;;;2.40;0.90;;;;;;;20.33;42.37;102642.47;5076458;28;20057;-51
2022/05/09 07:47:49;;;;;;;1.15;1.05;;;;;;;20.33;42.82;102642.47;5071504;28;20036;-52
2022/05/09 07:50:15;;;;;;;2.13;0.93;;;;;;;20.32;42.58;102644.31;5076665;28;20397;-51
2022/05/09 07:52:42;;;;;;;1.52;0.80;;;;;;;20.30;42.60;102640.88;5074513;28;20027;-48
2022/05/09 07:55:09;;;;;;;0.85;0.60;;;;;;;20.32;42.69;102641.59;5078192;28;20017;-50
2022/05/09 07:57:34;;;;;;;1.83;1.00;;;;;;;20.31;42.91;102642.59;5076526;28;20394;-51
2022/05/09 07:59:59;;;;;;;1.10;0.70;;;;;;;20.30;42.54;102638.16;5076560;28;20059;-51
2022/05/09 08:02:25;;;;;;;1.70;0.80;;;;;;;20.30;42.55;102645.44;5074172;28;20020;-51
2022/05/09 08:04:50;;;;;;;1.90;0.90;;;;;;;20.28;42.51;102640.16;5073509;28;20057;-53
2022/05/09 08:07:16;;;;;;;1.58;0.90;;;;;;;20.29;42.89;102644.56;5079068;28;20238;-51
2022/05/09 08:09:42;;;;;;;1.30;0.73;;;;;;;20.29;42.80;102643.72;5077439;28;20035;-52
2022/05/09 08:12:07;;;;;;;0.90;0.70;;;;;;;20.29;42.61;102654.53;5075768;28;20020;-49
2022/05/09 08:14:33;;;;;;;1.17;0.80;;;;;;;20.29;43.00;102649.97;5067604;28;20033;-52
2022/05/09 08:16:58;;;;;;;2.22;0.85;;;;;;;20.20;43.19;102634.59;5080720;28;20024;-51
2022/05/09 08:19:23;;;;;;;0.82;0.60;;;;;;;20.30;42.82;102646.28;5079713;28;20029;-54
2022/05/09 08:21:50;;;;;;;0.88;0.68;;;;;;;20.30;42.82;102648.97;5077340;28;20035;-51
2022/05/09 08:24:17;;;;;;;1.58;0.70;;;;;;;20.34;43.04;102641.47;5075906;28;20104;-51
2022/05/09 08:26:42;;;;;;;1.48;0.80;;;;;;;20.35;42.83;102641.34;5079211;28;20035;-51
2022/05/09 08:29:07;;;;;;;0.65;0.50;;;;;;;20.33;42.76;102634.34;5073024;28;20068;-50
2022/05/09 08:31:33;;;;;;;1.17;1.00;;;;;;;20.33;42.95;102634.34;5075746;28;20025;-52
2022/05/09 08:33:59;;;;;;;1.35;0.80;;;;;;;20.38;42.56;102643.75;5075712;28;20559;-51
2022/05/09 08:39:08;;;;;;;1.55;0.90;;;;;;;20.39;42.75;102640.09;5071059;28;20061;-51
2022/05/09 08:41:49;;;;;;;1.52;0.80;;;;;;;20.42;42.70;102647.03;5075678;28;20126;-51
2022/05/09 08:44:18;;;;;;;1.63;1.00;;;;;;;20.40;42.87;102639.09;5041821;28;1011282;-54
2022/05/09 08:46:52;;;;;;;2.15;1.10;;;;;;;20.40;42.84;102639.09;5077064;28;20040;-51
2022/05/09 08:49:51;;;;;;;1.25;0.70;;;;;;;20.42;42.84;102637.09;5061111;28;20029;-47
2022/05/09 08:52:34;;;;;;;1.58;0.75;;;;;;;20.41;43.04;102629.13;5071145;28;20126;-52
2022/05/09 08:54:59;;;;;;;1.30;0.80;;;;;;;20.42;42.93;102645.19;5072258;28;20080;-52
2022/05/09 08:57:55;;;;;;;1.58;0.70;;;;;;;20.44;42.80;102635.13;5081000;28;20036;-51
2022/05/09 09:00:21;;;;;;;1.20;0.80;;;;;;;20.40;42.66;102630.13;5071842;28;20031;-53
2022/05/09 09:02:57;;;;;;;1.45;0.70;;;;;;;20.45;42.67;102638.66;5077996;28;20062;-50
2022/05/09 09:05:24;;;;;;;1.80;0.60;;;;;;;20.44;42.95;102634.28;5073163;28;20056;-51
2022/05/09 09:08:07;;;;;;;0.60;0.50;;;;;;;20.45;42.78;102626.00;5078182;28;20036;-51
2022/05/09 09:10:58;;;;;;;0.80;0.52;;;;;;;20.45;42.82;102627.88;5075906;28;20035;-52
2022/05/09 09:13:45;;;;;;;1.13;0.73;;;;;;;20.45;43.08;102625.16;5075889;28;20065;-50
2022/05/09 09:16:33;;;;;;;1.08;0.65;;;;;;;20.46;42.69;102627.72;5067901;28;20111;-53
2022/05/09 09:19:21;;;;;;;1.67;0.80;;;;;;;20.46;43.03;102633.13;5072920;28;20033;-53
2022/05/09 09:21:53;;;;;;;0.80;0.60;;;;;;;20.46;42.86;102633.13;5069632;28;20020;-50
2022/05/09 09:24:24;;;;;;;1.08;0.65;;;;;;;20.47;42.99;102626.75;5073935;28;20076;-53
2022/05/09 09:27:01;;;;;;;1.65;0.88;;;;;;;20.48;42.93;102616.81;5077250;28;20024;-49
2022/05/09 09:29:36;;;;;;;1.70;0.60;;;;;;;20.50;43.00;102614.81;5070236;28;20084;-50
2022/05/09 09:32:05;;;;;;;1.02;0.63;;;;;;;20.49;43.03;102620.38;5077018;28;20115;-53
2022/05/09 09:34:40;;;;;;;1.75;0.73;;;;;;;20.49;43.03;102607.72;5068098;28;20053;-51
2022/05/09 09:37:13;;;;;;;1.08;0.70;;;;;;;20.50;42.79;102608.56;5076593;28;20036;-49
2022/05/09 09:39:39;;;;;;;1.15;0.50;;;;;;;20.45;43.10;102601.69;5076687;28;20028;-45
2022/05/09 09:42:05;;;;;;;1.70;0.70;;;;;;;20.50;42.85;102604.00;5076318;28;20035;-51
2022/05/09 09:44:34;;;;;;;0.80;0.50;;;;;;;20.52;42.67;102598.47;5075260;28;20044;-49
2022/05/09 09:47:01;;;;;;;;;;;;;;;20.49;43.16;102606.88;5070132;28;20112;-52
2022/05/09 09:49:27;;;;;;;0.80;0.70;;;;;;;20.47;42.79;102594.31;5073597;28;19920;-53
2022/05/09 09:51:52;;;;;;;0.70;0.60;;;;;;;20.52;43.04;102598.47;5083993;28;20033;-52
2022/05/09 09:54:23;;;;;;;1.13;0.63;;;;;;;20.55;42.54;102596.34;5084523;28;20023;-50
2022/05/09 09:56:48;;;;;;;0.80;0.60;;;;;;;20.55;42.00;102584.69;5080857;28;20084;-51
2022/05/09 09:59:13;;;;;;;0.90;0.80;;;;;;;20.56;42.75;102589.97;5075750;28;20040;-50
2022/05/09 10:01:39;;;;;;;0.82;0.60;;;;;;;20.58;42.76;102581.72;5075894;28;20025;-48
2022/05/09 10:04:09;;;;;;;1.63;0.80;;;;;;;20.60;42.45;102583.28;5078437;28;20021;-52
2022/05/09 10:07:01;;;;;;;1.73;0.52;;;;;;;20.61;42.80;102576.03;5080231;28;20032;-53
2022/05/09 10:09:29;;;;;;;0.75;0.50;;;;;;;20.58;42.80;102570.91;5070912;28;20043;-50
2022/05/09 10:11:56;;;;;;;0.80;0.80;;;;;;;20.62;43.01;102575.03;5069609;28;20124;-54
2022/05/09 10:14:33;;;;;;;1.98;1.10;;;;;;;20.65;42.51;102577.47;5077973;28;20032;-53
2022/05/09 10:17:18;;;;;;;0.90;0.65;;;;;;;20.66;42.87;102571.06;5075746;28;20029;-54
2022/05/09 10:19:44;;;;;;;1.30;0.60;;;;;;;20.63;42.92;102555.13;5072621;28;20048;-52
2022/05/09 10:25:05;;;;;;;0.98;0.63;;;;;;;20.67;42.46;102565.50;5080134;28;20059;-51
2022/05/09 10:27:31;;;;;;;1.52;0.77;;;;;;;20.68;42.66;102561.81;5074561;28;20040;-52
2022/05/09 10:30:09;;;;;;;1.70;0.70;;;;;;;20.69;42.98;102554.56;5078323;28;20025;-53
2022/05/09 10:32:54;;;;;;;1.98;0.70;;;;;;;20.69;42.80;102541.06;5075317;28;20186;-51
2022/05/09 10:35:43;;;;;;;0.73;0.60;;;;;;;20.70;42.69;102545.47;5079355;28;20021;-52
2022/05/09 10:38:16;;;;;;;1.75;0.85;;;;;;;20.71;42.53;102549.88;5072289;28;20025;-51
2022/05/09 10:40:46;;;;;;;1.02;0.70;;;;;;;20.72;42.54;102535.34;5052926;28;20024;-53
2022/05/09 10:43:25;;;;;;;1.50;0.60;;;;;;;20.74;42.47;102541.47;5069946;28;20059;-52
2022/05/09 10:45:52;;;;;;;2.28;0.70;;;;;;;20.72;42.32;102536.19;5075850;28;20075;-47
2022/05/09 10:48:36;;;;;;;0.60;0.57;;;;;;;20.75;42.69;102529.66;5080543;28;20024;-51
2022/05/09 10:51:11;;;;;;;0.60;0.60;;;;;;;20.78;42.53;102533.94;5071269;28;20384;-49
2022/05/09 10:53:44;;;;;;;0.70;0.60;;;;;;;20.79;42.64;102531.09;5067529;28;20035;-51
2022/05/09 10:56:29;;;;;;;1.45;0.73;;;;;;;20.79;42.63;102519.44;5074131;28;20025;-49
2022/05/09 10:59:04;;;;;;;0.73;0.50;;;;;;;20.77;42.64;102519.56;5077070;28;20031;-51
2022/05/09 11:01:40;;;;;;;1.00;0.65;;;;;;;20.83;42.41;102518.16;5080261;28;20024;-45
2022/05/09 11:04:05;;;;;;;0.50;0.50;;;;;;;20.83;42.50;102523.56;5079076;28;20021;-48
2022/05/09 11:06:58;;;;;;;1.15;0.60;;;;;;;20.85;42.36;102518.84;5075742;28;20098;-50
2022/05/09 11:09:32;;;;;;;0.90;0.57;;;;;;;20.86;42.45;102520.59;5073747;28;20032;-49
2022/05/09 11:12:37;;;;;;;1.35;0.98;;;;;;;20.88;42.21;102507.75;5082704;28;20025;-53
2022/05/09 11:15:14;;;;;;;0.90;0.55;;;;;;;20.88;42.50;102505.91;5081087;28;20117;-52
2022/05/09 11:17:54;;;;;;;0.95;0.90;;;;;;;20.90;42.27;102503.06;5074229;28;20328;-52
2022/05/09 11:20:47;;;;;;;0.70;0.60;;;;;;;20.91;42.43;102502.94;5077944;28;20020;-51
2022/05/09 11:23:23;;;;;;;1.00;0.60;;;;;;;20.92;42.35;102496.50;5075009;28;20035;-51
2022/05/09 11:26:27;;;;;;;0.70;0.60;;;;;;;20.93;42.37;102495.50;5072590;28;20036;-51
2022/05/09 11:29:13;;;;;;;1.17;0.63;;;;;;;20.93;42.53;102498.22;5076299;28;20028;-50
2022/05/09 11:31:47;;;;;;;0.88;0.52;;;;;;;20.94;42.70;102488.25;5071780;28;20041;-50
2022/05/09 11:34:26;;;;;;;0.95;0.70;;;;;;;20.95;42.73;102501.63;5081904;28;20020;-48
2022/05/09 11:37:20;;;;;;;0.85;0.60;;;;;;;20.97;42.86;102491.53;5078807;28;20032;-50
2022/05/09 11:39:59;;;;;;;1.00;0.50;;;;;;;20.99;42.51;102488.69;5067656;28;20033;-49
2022/05/09 11:45:22;;;;;;;1.25;0.65;;;;;;;21.02;42.52;102482.13;5078349;28;20050;-51
2022/05/09 11:48:01;;;;;;;1.08;0.75;;;;;;;21.05;42.83;102480.00;5075111;28;20021;-51
2022/05/09 11:50:33;;;;;;;0.90;0.60;;;;;;;21.06;42.80;102470.88;5073389;28;20025;-52
2022/05/09 11:52:59;;;;;;;0.70;0.60;;;;;;;21.07;42.62;102467.19;5081614;28;20024;-51